Monday, November 20, 2017, 4:09 AM GMT
Back to Local

CWDQ, La Tuque

Location: , , Canada Lat: 47.417
Local Time: 4:09 AM GMT ( 4:09 GMT) Lon: -72.8
Time Zone: GMT Elev: 554 ft

Show me the last for .
Show Coded

Time T Td Feel RH Dir Speed Gust Alt SLP Vis Weather Sky Remarks
2017-11-20 03:00 19 14 9 78 330° 8 - - 29.50 0 Peak wind: 19 mph (17 kts) from 330° at 19 min
2017-11-20 02:00 21 15 6 77 320° 12 20 - 29.49 0 Peak wind: 19 mph (17 kts) from 330° at 51 min
2017-11-20 01:00 23 18 9 81 310° 7 17 - 29.45 0 None
2017-11-20 00:00 24 20 9 82 300° 12 21 - 29.41 0 Peak wind: 20 mph (18 kts) from 280° at 50 min
2017-11-19 23:00 24 21 16 85 300° 7 - - 29.38 0 None
2017-11-19 22:00 24 22 16 88 300° 7 - - 29.35 0 None
2017-11-19 21:00 24 22 18 89 310° 5 - - 29.32 0 None
2017-11-19 20:00 24 22 16 90 320° 7 - - 29.28 0 1-hr Precip Total: 0.04"
2017-11-19 19:00 28 23 19 84 310° 8 - - 29.23 0 1-hr Precip Total: 0.04"
2017-11-19 18:00 26 25 17 94 320° 9 - - 29.19 0 1-hr Precip Total: 0.04"
2017-11-19 17:00 26 26 22 98 330° 3 - - 29.17 0 1-hr Precip Total: 0.12"
2017-11-19 16:00 26 26 19 97 340° 6 - - 29.15 0 1-hr Precip Total: 0.12"
2017-11-19 15:00 27 26 18 97 340° 8 - - 29.15 0 1-hr Precip Total: 0.08"
2017-11-19 14:00 27 26 23 98 350° 3 - - 29.15 0 1-hr Precip Total: 0.04"
2017-11-19 13:00 26 26 20 97 340° 6 - - 29.15 0 1-hr Precip Total: 0.04"
2017-11-19 12:00 26 26 20 97 350° 6 - - 29.16 0 1-hr Precip Total: 0.08"
2017-11-19 11:00 26 26 21 97 330° 5 - - 29.19 0 1-hr Precip Total: 0.04"
2017-11-19 10:00 26 26 21 97 350° 5 - - 29.21 0 1-hr Precip Total: 0.12"
2017-11-19 09:00 26 25 19 97 340° 6 - - 29.25 0 None
2017-11-19 08:00 26 25 20 97 330° 5 - - 29.28 0 None
2017-11-19 07:00 25 24 16 97 340° 8 - - 29.31 0 None
2017-11-19 06:00 26 23 20 89 350° 5 - - 29.36 0 None
2017-11-19 05:00 26 22 21 83 350° 5 - - 29.40 0 None

Support USWX by starting your Amazon purchase here.